createdAt,value
2023-05-19T00:00:47.827Z,51.94
2023-05-19T00:01:46.640Z,55.38
2023-05-19T00:02:46.536Z,53.62
2023-05-19T00:03:45.617Z,53.64
2023-05-19T00:04:45.620Z,53.18
2023-05-19T00:05:45.690Z,58.56
2023-05-19T00:06:45.603Z,54.33
2023-05-19T00:07:45.601Z,49.10
2023-05-19T00:08:45.588Z,54.09
2023-05-19T00:09:45.592Z,49.17
2023-05-19T00:10:45.568Z,56.44
2023-05-19T00:11:45.564Z,45.73
2023-05-19T00:12:45.565Z,43.42
2023-05-19T00:13:45.523Z,48.17
2023-05-19T00:14:45.526Z,50.53
2023-05-19T00:15:45.546Z,50.64
2023-05-19T00:16:45.530Z,44.14
2023-05-19T00:17:46.515Z,49.93
2023-05-19T00:18:46.464Z,42.40
2023-05-19T00:19:45.484Z,53.28
2023-05-19T00:22:45.041Z,53.13
2023-05-19T00:23:44.994Z,48.94
2023-05-19T00:24:45.658Z,55.07
2023-05-19T00:25:44.986Z,48.47
2023-05-19T00:26:44.967Z,48.12
2023-05-19T00:27:46.063Z,53.29
2023-05-19T00:28:47.101Z,46.24
2023-05-19T00:29:46.063Z,54.86
2023-05-19T00:30:46.043Z,47.71
2023-05-19T00:31:46.053Z,46.03
2023-05-19T00:32:46.082Z,52.10
2023-05-19T00:33:46.677Z,46.27
2023-05-19T00:34:46.002Z,54.77
2023-05-19T00:35:46.019Z,58.78
2023-05-19T00:36:46.009Z,56.47
2023-05-19T00:37:45.997Z,54.98
2023-05-19T00:38:45.987Z,50.41
2023-05-19T00:39:45.973Z,44.31
2023-05-19T00:40:45.969Z,49.28
2023-05-19T00:41:45.946Z,58.27
2023-05-19T00:42:45.963Z,44.85
2023-05-19T00:43:45.938Z,43.82
2023-05-19T00:44:45.966Z,44.76
2023-05-19T00:45:46.685Z,53.79
2023-05-19T00:46:45.943Z,47.63
2023-05-19T00:47:45.944Z,47.38
2023-05-19T00:48:45.948Z,45.31
2023-05-19T00:49:45.895Z,44.07
2023-05-19T00:50:45.903Z,50.81
2023-05-19T00:51:45.881Z,49.74
2023-05-19T00:52:45.875Z,49.92
2023-05-19T00:53:45.866Z,48.12
2023-05-19T00:54:45.870Z,48.34
2023-05-19T00:55:45.894Z,49.65
2023-05-19T00:56:45.857Z,52.76
2023-05-19T00:57:45.850Z,45.60
2023-05-19T00:58:45.817Z,45.54
2023-05-19T00:59:45.817Z,45.70
2023-05-19T01:00:45.916Z,48.52
2023-05-19T01:01:45.836Z,49.76
2023-05-19T01:02:45.859Z,56.54
2023-05-19T01:03:45.833Z,50.89
2023-05-19T01:04:45.777Z,50.35
2023-05-19T01:05:45.781Z,46.86
2023-05-19T01:06:45.769Z,46.78
2023-05-19T01:07:45.782Z,49.60
2023-05-19T01:08:45.759Z,54.43
2023-05-19T01:09:45.749Z,55.51
2023-05-19T01:10:45.736Z,49.63
2023-05-19T01:11:45.734Z,48.95
2023-05-19T01:12:45.732Z,52.81
2023-05-19T01:13:46.676Z,47.33
2023-05-19T01:14:45.712Z,47.83
2023-05-19T01:15:45.699Z,46.43
2023-05-19T01:16:45.726Z,47.79
2023-05-19T01:17:45.723Z,46.69
2023-05-19T01:18:45.706Z,47.03
2023-05-19T01:19:45.665Z,50.65
2023-05-19T01:20:45.726Z,46.52
2023-05-19T01:21:45.655Z,45.34
2023-05-19T01:22:45.637Z,46.79
2023-05-19T01:23:45.649Z,46.56
2023-05-19T01:24:45.627Z,50.73
2023-05-19T01:25:45.672Z,52.29
2023-05-19T01:26:45.609Z,45.95
2023-05-19T01:27:45.613Z,48.73
2023-05-19T01:28:45.617Z,56.47
2023-05-19T01:29:45.603Z,48.95
2023-05-19T01:30:45.609Z,52.53
2023-05-19T01:31:45.611Z,55.54
2023-05-19T01:32:45.624Z,55.22
2023-05-19T01:33:45.584Z,52.68
2023-05-19T01:34:45.560Z,52.78
2023-05-19T01:35:45.539Z,53.42
2023-05-19T01:36:45.531Z,58.33
2023-05-19T01:37:45.547Z,48.74
2023-05-19T01:38:45.536Z,52.69
2023-05-19T01:39:45.555Z,50.77
2023-05-19T01:40:45.520Z,55.11
2023-05-19T01:41:46.196Z,46.71
2023-05-19T01:42:45.528Z,51.34
2023-05-19T01:43:45.495Z,51.05
2023-05-19T01:44:45.489Z,48.22
2023-05-19T01:45:45.502Z,47.75
2023-05-19T01:46:45.466Z,55.15
2023-05-19T01:47:45.523Z,46.81
2023-05-19T01:48:45.449Z,49.68
2023-05-19T01:49:45.447Z,46.90
2023-05-19T01:50:45.431Z,51.27
2023-05-19T01:51:45.439Z,50.35
2023-05-19T01:52:45.413Z,53.00
2023-05-19T01:53:45.454Z,50.80
2023-05-19T01:54:46.184Z,53.16
2023-05-19T01:55:45.408Z,52.06
2023-05-19T01:56:45.389Z,56.88
2023-05-19T01:57:45.380Z,55.16
2023-05-19T01:58:45.370Z,50.38
2023-05-19T01:59:45.379Z,55.10
2023-05-19T02:00:45.357Z,50.39
2023-05-19T02:01:45.447Z,53.92
2023-05-19T02:02:45.342Z,49.30
2023-05-19T02:03:45.330Z,52.24
2023-05-19T02:04:45.399Z,51.53
2023-05-19T02:05:45.303Z,51.48
2023-05-19T02:06:45.302Z,51.36
2023-05-19T02:07:45.305Z,53.26
2023-05-19T02:08:45.297Z,50.35
2023-05-19T02:09:45.296Z,52.32
2023-05-19T02:10:45.276Z,51.33
2023-05-19T02:11:45.275Z,53.82
2023-05-19T02:12:45.256Z,54.76
2023-05-19T02:13:45.254Z,49.58
2023-05-19T02:14:46.244Z,53.59
2023-05-19T02:15:45.252Z,54.21
2023-05-19T02:16:45.263Z,50.23
2023-05-19T02:17:45.333Z,55.44
2023-05-19T02:18:45.355Z,57.52
2023-05-19T02:19:45.196Z,53.99
2023-05-19T02:20:45.207Z,51.02
2023-05-19T02:21:45.185Z,52.15
2023-05-19T02:22:45.190Z,57.03
2023-05-19T02:23:45.175Z,52.59
2023-05-19T02:24:45.166Z,57.91
2023-05-19T02:25:45.178Z,51.86
2023-05-19T02:26:45.147Z,56.31
2023-05-19T02:27:45.147Z,58.43
2023-05-19T02:28:45.127Z,56.42
2023-05-19T02:29:45.132Z,57.13
2023-05-19T02:30:45.121Z,52.14
2023-05-19T02:31:45.186Z,56.49
2023-05-19T02:32:45.138Z,55.80
2023-05-19T02:33:45.131Z,54.07
2023-05-19T02:34:45.782Z,55.31
2023-05-19T02:35:45.082Z,50.69
2023-05-19T02:36:45.070Z,52.41
2023-05-19T02:37:45.089Z,51.16
2023-05-19T02:38:45.048Z,53.51
2023-05-19T02:39:45.054Z,52.88
2023-05-19T02:40:45.045Z,56.07
2023-05-19T02:41:46.032Z,53.25
2023-05-19T02:42:45.042Z,51.21
2023-05-19T02:43:45.032Z,57.79
2023-05-19T02:44:45.009Z,51.88
2023-05-19T02:45:45.008Z,59.09
2023-05-19T02:46:45.081Z,56.27
2023-05-19T02:47:45.022Z,53.67
2023-05-19T02:48:44.984Z,57.43
2023-05-19T02:49:44.971Z,55.19
2023-05-19T02:50:44.962Z,57.22
2023-05-19T02:51:45.028Z,54.58
2023-05-19T02:52:46.742Z,54.46
2023-05-19T02:53:44.923Z,54.91
2023-05-19T02:54:45.786Z,60.27
2023-05-19T02:55:44.946Z,60.61
2023-05-19T02:56:44.929Z,61.09
2023-05-19T02:57:44.894Z,53.71
2023-05-19T02:58:44.901Z,57.69
2023-05-19T02:59:44.903Z,52.64
2023-05-19T03:00:44.871Z,57.21
2023-05-19T03:01:44.958Z,60.69
2023-05-19T03:02:44.912Z,54.06
2023-05-19T03:03:44.969Z,56.19
2023-05-19T03:04:44.845Z,57.61
2023-05-19T03:05:44.829Z,60.42
2023-05-19T03:06:44.824Z,58.01
2023-05-19T03:07:44.826Z,63.02
2023-05-19T03:08:44.808Z,55.15
2023-05-19T03:09:44.814Z,56.57
2023-05-19T03:10:45.775Z,60.44
2023-05-19T03:11:45.709Z,58.53
2023-05-19T03:12:44.801Z,62.07
2023-05-19T03:13:44.770Z,54.98
2023-05-19T03:14:44.766Z,52.06
2023-05-19T03:15:44.742Z,55.48
2023-05-19T03:16:44.905Z,63.32
2023-05-19T03:17:44.865Z,60.07
2023-05-19T03:18:44.734Z,62.67
2023-05-19T03:19:44.721Z,60.70
2023-05-19T03:20:45.305Z,57.51
2023-05-19T03:21:44.709Z,58.69
2023-05-19T03:22:44.720Z,61.22
2023-05-19T03:23:44.705Z,59.89
2023-05-19T03:24:44.686Z,56.33
2023-05-19T03:25:44.683Z,59.07
2023-05-19T03:26:44.666Z,59.67
2023-05-19T03:27:44.708Z,57.50
2023-05-19T03:28:44.653Z,57.79
2023-05-19T03:29:44.641Z,59.32
2023-05-19T03:30:44.656Z,57.48
2023-05-19T03:31:44.662Z,61.33
2023-05-19T03:32:44.712Z,61.12
2023-05-19T03:33:44.677Z,60.62
2023-05-19T03:34:44.637Z,60.31
2023-05-19T03:35:44.621Z,60.68
2023-05-19T03:36:44.588Z,62.03
2023-05-19T03:37:44.586Z,64.29
2023-05-19T03:38:44.579Z,61.65
2023-05-19T03:39:44.575Z,64.31
2023-05-19T03:40:44.563Z,61.52
2023-05-19T03:41:44.576Z,62.15
2023-05-19T03:42:44.566Z,63.74
2023-05-19T03:43:44.549Z,63.28
2023-05-19T03:44:44.550Z,56.00
2023-05-19T03:45:44.613Z,58.97
2023-05-19T03:46:44.557Z,61.72
2023-05-19T03:47:44.577Z,56.82
2023-05-19T03:48:44.509Z,58.47
2023-05-19T03:49:44.527Z,61.99
2023-05-19T03:50:44.497Z,63.64
2023-05-19T03:51:44.483Z,62.65
2023-05-19T03:52:44.482Z,66.39
2023-05-19T03:53:44.460Z,60.52
2023-05-19T03:54:44.469Z,68.46
2023-05-19T03:55:44.473Z,62.28
2023-05-19T03:56:44.456Z,60.49
2023-05-19T03:57:44.501Z,62.24
2023-05-19T03:58:44.497Z,63.64
2023-05-19T03:59:44.414Z,64.06
2023-05-19T04:00:44.415Z,65.53
2023-05-19T04:01:44.423Z,64.17
2023-05-19T04:02:44.542Z,63.78
2023-05-19T04:03:44.446Z,58.75
2023-05-19T04:04:44.438Z,62.18
2023-05-19T04:05:44.393Z,57.83
2023-05-19T04:06:45.213Z,53.38
2023-05-19T04:07:44.386Z,61.98
2023-05-19T04:08:44.364Z,58.54
2023-05-19T04:09:44.372Z,56.23
2023-05-19T04:10:44.353Z,59.65
2023-05-19T04:11:44.341Z,60.21
2023-05-19T04:12:44.318Z,59.15
2023-05-19T04:13:45.200Z,61.51
2023-05-19T04:14:44.306Z,61.32
2023-05-19T04:15:44.312Z,62.02
2023-05-19T04:16:44.312Z,55.11
2023-05-19T04:17:44.368Z,59.82
2023-05-19T04:18:44.797Z,62.87
2023-05-19T04:19:44.273Z,58.68
2023-05-19T04:20:44.274Z,66.68
2023-05-19T04:21:44.286Z,62.69
2023-05-19T04:22:44.229Z,64.01
2023-05-19T04:23:44.274Z,61.32
2023-05-19T04:24:44.268Z,62.21
2023-05-19T04:25:44.213Z,63.19
2023-05-19T04:26:44.200Z,60.76
2023-05-19T04:27:44.237Z,57.88
2023-05-19T04:28:44.189Z,59.25
2023-05-19T04:29:44.190Z,58.42
2023-05-19T04:30:44.176Z,63.54
2023-05-19T04:31:44.347Z,62.83
2023-05-19T04:32:44.234Z,63.24
2023-05-19T04:33:44.162Z,62.08
2023-05-19T04:34:44.172Z,65.10
2023-05-19T04:35:44.173Z,63.31
2023-05-19T04:36:44.148Z,63.63
2023-05-19T04:37:44.121Z,64.70
2023-05-19T04:38:44.109Z,63.29
2023-05-19T04:39:44.132Z,62.72
2023-05-19T04:40:44.125Z,61.09
2023-05-19T04:41:44.099Z,62.43
2023-05-19T04:42:44.133Z,63.63
2023-05-19T04:43:44.076Z,64.35
2023-05-19T04:44:44.065Z,63.66
2023-05-19T04:45:44.065Z,63.12
2023-05-19T04:46:44.074Z,62.79
2023-05-19T04:47:44.105Z,63.62
2023-05-19T04:48:44.032Z,61.95
2023-05-19T04:49:44.023Z,63.29
2023-05-19T04:50:44.023Z,58.69
2023-05-19T04:51:44.027Z,62.51
2023-05-19T04:52:44.070Z,61.91
2023-05-19T04:53:44.004Z,62.89
2023-05-19T04:55:17.259Z,62.96
2023-05-19T04:55:43.981Z,63.30
2023-05-19T04:56:43.972Z,61.94
2023-05-19T04:57:43.961Z,67.91
2023-05-19T04:58:43.952Z,76.81
2023-05-19T04:59:43.956Z,75.90
2023-05-19T05:00:43.961Z,73.71
2023-05-19T05:01:44.018Z,71.48
2023-05-19T05:02:44.007Z,71.45
2023-05-19T05:03:43.984Z,69.06
2023-05-19T05:04:43.917Z,69.90
2023-05-19T05:05:43.891Z,69.60
2023-05-19T05:06:43.902Z,67.91
2023-05-19T05:07:43.905Z,67.07
2023-05-19T05:08:43.872Z,64.20
2023-05-19T05:09:43.868Z,59.95
2023-05-19T05:10:43.846Z,62.50
2023-05-19T05:11:43.854Z,60.80
2023-05-19T05:12:43.838Z,63.78
2023-05-19T05:13:43.842Z,62.46
2023-05-19T05:14:43.850Z,61.08
2023-05-19T05:15:43.833Z,60.46
2023-05-19T05:16:43.926Z,62.33
2023-05-19T05:17:43.881Z,62.40
2023-05-19T05:18:44.905Z,69.85
2023-05-19T05:19:44.815Z,68.09
2023-05-19T05:20:43.782Z,65.75
2023-05-19T05:21:43.805Z,64.00
2023-05-19T05:22:43.754Z,63.24
2023-05-19T05:23:43.755Z,63.17
2023-05-19T05:24:43.748Z,63.74
2023-05-19T05:25:43.751Z,63.12
2023-05-19T05:26:43.734Z,59.81
2023-05-19T05:27:43.726Z,62.08
2023-05-19T05:28:43.727Z,62.23
2023-05-19T05:29:43.702Z,61.35
2023-05-19T05:30:43.731Z,64.56
2023-05-19T05:31:43.702Z,59.26
2023-05-19T05:32:43.722Z,61.87
2023-05-19T05:33:43.726Z,62.34
2023-05-19T05:34:43.673Z,62.47
2023-05-19T05:35:43.666Z,61.53
2023-05-19T05:36:43.675Z,62.73
2023-05-19T05:37:43.652Z,62.54
2023-05-19T05:38:43.633Z,63.22
2023-05-19T05:39:43.633Z,62.28
2023-05-19T05:40:43.645Z,64.01
2023-05-19T05:41:43.631Z,59.55
2023-05-19T05:42:43.629Z,60.89
2023-05-19T05:43:43.611Z,60.48
2023-05-19T05:44:43.589Z,61.47
2023-05-19T05:45:43.640Z,61.75
2023-05-19T05:46:43.569Z,62.12
2023-05-19T05:47:43.582Z,62.37
2023-05-19T05:48:43.611Z,63.03
2023-05-19T05:49:43.550Z,63.23
2023-05-19T05:50:43.578Z,59.55
2023-05-19T05:51:54.320Z,63.76
2023-05-19T05:52:45.544Z,64.60
2023-05-19T05:53:43.537Z,64.45
2023-05-19T05:54:44.266Z,63.96
2023-05-19T05:55:43.512Z,61.91
2023-05-19T05:56:43.496Z,60.45
2023-05-19T05:57:43.503Z,61.74
2023-05-19T05:58:43.511Z,63.30
2023-05-19T05:59:43.487Z,62.89
2023-05-19T06:00:44.362Z,65.62
2023-05-19T06:01:43.462Z,62.84
2023-05-19T06:02:43.572Z,64.34
2023-05-19T06:03:44.482Z,64.12
2023-05-19T06:04:43.468Z,61.57
2023-05-19T06:05:43.500Z,62.30
2023-05-19T06:06:43.444Z,64.83
2023-05-19T06:07:43.431Z,63.68
2023-05-19T06:08:43.418Z,59.78
2023-05-19T06:09:43.402Z,62.20
2023-05-19T06:10:45.159Z,62.23
2023-05-19T06:11:43.394Z,60.52
2023-05-19T06:12:43.402Z,61.45
2023-05-19T06:13:43.377Z,61.95
2023-05-19T06:14:43.415Z,60.15
2023-05-19T06:15:44.332Z,64.33
2023-05-19T06:16:43.356Z,64.59
2023-05-19T06:17:43.363Z,60.03
2023-05-19T06:18:43.387Z,65.51
2023-05-19T06:19:43.348Z,65.94
2023-05-19T06:20:43.352Z,63.21
2023-05-19T06:21:43.327Z,61.86
2023-05-19T06:22:43.306Z,61.44
2023-05-19T06:23:43.306Z,61.19
2023-05-19T06:24:43.291Z,64.88
2023-05-19T06:25:44.934Z,61.99
2023-05-19T06:26:43.371Z,65.35
2023-05-19T06:27:44.866Z,62.88
2023-05-19T06:28:43.256Z,63.80
2023-05-19T06:29:43.354Z,64.13
2023-05-19T06:30:43.243Z,63.10
2023-05-19T06:31:43.337Z,63.16
2023-05-19T06:32:43.267Z,65.68
2023-05-19T06:33:43.299Z,62.13
2023-05-19T06:34:43.254Z,62.48
2023-05-19T06:35:43.198Z,62.67
2023-05-19T06:36:43.190Z,63.67
2023-05-19T06:37:43.179Z,65.36
2023-05-19T06:38:43.214Z,63.55
2023-05-19T06:39:43.157Z,65.27
2023-05-19T06:40:43.174Z,62.97
2023-05-19T06:41:44.881Z,62.71
2023-05-19T06:42:43.144Z,66.05
2023-05-19T06:43:43.143Z,63.35
2023-05-19T06:44:43.129Z,60.54
2023-05-19T06:45:43.135Z,62.38
2023-05-19T06:46:43.158Z,62.98
2023-05-19T06:47:43.132Z,61.18
2023-05-19T06:48:43.106Z,61.52
2023-05-19T06:49:43.873Z,60.95
2023-05-19T06:50:43.394Z,62.72
2023-05-19T06:51:43.140Z,65.11
2023-05-19T06:52:43.060Z,64.21
2023-05-19T06:53:43.068Z,62.21
2023-05-19T06:54:43.068Z,66.41
2023-05-19T06:55:57.444Z,63.81
2023-05-19T06:56:45.057Z,64.05
2023-05-19T06:57:43.035Z,64.62
2023-05-19T06:58:43.081Z,62.65
2023-05-19T06:59:43.011Z,64.44
2023-05-19T07:00:44.969Z,64.95
2023-05-19T07:01:43.037Z,62.98
2023-05-19T07:02:43.062Z,63.38
2023-05-19T07:03:43.111Z,63.49
2023-05-19T07:04:43.205Z,64.68
2023-05-19T07:05:42.962Z,64.98
2023-05-19T07:06:42.973Z,66.46
2023-05-19T07:07:43.056Z,63.84
2023-05-19T07:08:43.005Z,62.05
2023-05-19T07:09:42.945Z,61.52
2023-05-19T07:10:42.944Z,66.33
2023-05-19T07:11:42.920Z,61.47
2023-05-19T07:12:42.920Z,61.65
2023-05-19T07:13:42.887Z,61.95
2023-05-19T07:14:42.891Z,60.66
2023-05-19T07:15:42.912Z,62.72
2023-05-19T07:16:42.971Z,61.39
2023-05-19T07:17:42.969Z,62.92
2023-05-19T07:18:42.940Z,64.61
2023-05-19T07:19:42.864Z,61.54
2023-05-19T07:20:42.921Z,63.70
2023-05-19T07:21:42.843Z,65.77
2023-05-19T07:22:42.838Z,62.81
2023-05-19T07:23:42.848Z,62.96
2023-05-19T07:24:42.831Z,63.52
2023-05-19T07:25:42.814Z,62.77
2023-05-19T07:26:42.840Z,63.20
2023-05-19T07:27:44.387Z,65.16
2023-05-19T07:28:42.818Z,63.65
2023-05-19T07:29:42.814Z,64.99
2023-05-19T07:30:42.790Z,67.42
2023-05-19T07:31:42.873Z,61.16
2023-05-19T07:32:42.774Z,64.26
2023-05-19T07:33:42.761Z,63.78
2023-05-19T07:34:42.763Z,62.18
2023-05-19T07:35:42.760Z,65.81
2023-05-19T07:36:44.302Z,65.61
2023-05-19T07:37:42.727Z,64.78
2023-05-19T07:38:42.757Z,64.75
2023-05-19T07:39:42.729Z,64.36
2023-05-19T07:40:42.728Z,61.78
2023-05-19T07:41:42.706Z,62.55
2023-05-19T07:42:42.674Z,62.84
2023-05-19T07:43:42.675Z,64.21
2023-05-19T07:44:42.674Z,63.19
2023-05-19T07:45:42.676Z,63.94
2023-05-19T07:46:42.690Z,63.45
2023-05-19T07:47:42.679Z,63.22
2023-05-19T07:48:42.681Z,62.67
2023-05-19T07:49:42.644Z,64.53
2023-05-19T07:50:42.620Z,63.72
2023-05-19T07:51:42.611Z,63.96
2023-05-19T07:52:42.598Z,64.95
2023-05-19T07:53:42.929Z,64.05
2023-05-19T07:54:42.573Z,64.83
2023-05-19T07:55:43.587Z,65.15
2023-05-19T07:56:44.312Z,63.95
2023-05-19T07:57:42.565Z,65.68
2023-05-19T07:58:42.555Z,63.62
2023-05-19T07:59:42.558Z,65.12
2023-05-19T08:00:42.574Z,67.37
2023-05-19T08:01:42.545Z,64.09
2023-05-19T08:02:43.437Z,66.36
2023-05-19T08:03:43.503Z,64.92
2023-05-19T08:04:43.360Z,63.55
2023-05-19T08:05:43.398Z,62.46
2023-05-19T08:06:42.505Z,64.02
2023-05-19T08:07:42.513Z,63.61
2023-05-19T08:08:43.423Z,62.81
2023-05-19T08:09:44.478Z,64.04
2023-05-19T08:10:42.462Z,63.75
2023-05-19T08:11:42.472Z,66.54
2023-05-19T08:12:42.453Z,63.94
2023-05-19T08:13:42.451Z,63.94
2023-05-19T08:14:42.478Z,60.28
2023-05-19T08:15:42.489Z,65.49
2023-05-19T08:16:43.429Z,63.40
2023-05-19T08:17:42.450Z,63.63
2023-05-19T08:18:42.428Z,64.49
2023-05-19T08:19:42.402Z,65.21
2023-05-19T08:20:42.401Z,66.15
2023-05-19T08:21:42.379Z,64.55
2023-05-19T08:22:42.387Z,65.90
2023-05-19T08:23:42.917Z,64.48
2023-05-19T08:24:42.379Z,64.91
2023-05-19T08:25:43.351Z,63.79
2023-05-19T08:26:42.359Z,64.70
2023-05-19T08:27:42.337Z,63.38
2023-05-19T08:28:42.317Z,63.91
2023-05-19T08:29:42.327Z,63.59
2023-05-19T08:30:42.337Z,65.41
2023-05-19T08:31:43.363Z,64.46
2023-05-19T08:32:42.339Z,63.66
2023-05-19T08:33:42.302Z,65.18
2023-05-19T08:34:42.877Z,65.02
2023-05-19T08:35:42.284Z,62.78
2023-05-19T08:36:42.271Z,65.33
2023-05-19T08:37:42.408Z,63.53
2023-05-19T08:38:42.264Z,65.93
2023-05-19T08:39:42.259Z,62.59
2023-05-19T08:40:42.249Z,66.48
2023-05-19T08:41:42.226Z,64.41
2023-05-19T08:42:42.246Z,63.24
2023-05-19T08:43:42.921Z,63.89
2023-05-19T08:44:43.267Z,64.07
2023-05-19T08:45:42.285Z,63.63
2023-05-19T08:46:42.314Z,64.60
2023-05-19T08:47:42.218Z,63.31
2023-05-19T08:48:42.190Z,66.15
2023-05-19T08:49:42.166Z,64.62
2023-05-19T08:50:42.174Z,63.78
2023-05-19T08:51:42.179Z,65.04
2023-05-19T08:52:42.166Z,65.67
2023-05-19T08:53:42.236Z,63.10
2023-05-19T08:54:42.127Z,66.41
2023-05-19T08:55:42.136Z,63.82
2023-05-19T08:56:42.110Z,64.63
2023-05-19T08:57:42.117Z,66.14
2023-05-19T08:58:42.093Z,63.96
2023-05-19T08:59:42.101Z,67.77
2023-05-19T09:00:42.114Z,65.99
2023-05-19T09:01:42.879Z,64.24
2023-05-19T09:02:50.603Z,64.61
2023-05-19T09:03:44.099Z,65.36
2023-05-19T09:04:43.076Z,66.96
2023-05-19T09:05:42.059Z,67.95
2023-05-19T09:06:43.037Z,63.84
2023-05-19T09:07:42.063Z,66.90
2023-05-19T09:08:42.029Z,66.25
2023-05-19T09:09:43.018Z,62.92
2023-05-19T09:10:41.994Z,62.40
2023-05-19T09:11:41.997Z,63.78
2023-05-19T09:12:41.994Z,63.59
2023-05-19T09:13:41.987Z,62.04
2023-05-19T09:14:41.996Z,65.04
2023-05-19T09:15:41.974Z,64.50
2023-05-19T09:16:42.589Z,64.55
2023-05-19T09:17:42.992Z,63.91
2023-05-19T09:18:41.982Z,65.14
2023-05-19T09:19:41.927Z,65.30
2023-05-19T09:20:41.957Z,63.26
2023-05-19T09:21:42.115Z,65.89
2023-05-19T09:22:41.922Z,62.66
2023-05-19T09:23:41.921Z,64.79
2023-05-19T09:24:42.857Z,68.30
2023-05-19T09:25:41.891Z,64.38
2023-05-19T09:26:41.884Z,65.27
2023-05-19T09:27:41.880Z,64.91
2023-05-19T09:28:41.944Z,64.57
2023-05-19T09:29:41.855Z,65.14
2023-05-19T09:30:41.867Z,65.77
2023-05-19T09:31:41.858Z,64.30
2023-05-19T09:32:41.888Z,65.11
2023-05-19T09:33:45.209Z,64.96
2023-05-19T09:34:42.865Z,65.02
2023-05-19T09:35:41.876Z,65.71
2023-05-19T09:36:41.799Z,65.57
2023-05-19T09:37:42.449Z,66.08
2023-05-19T09:38:41.779Z,64.36
2023-05-19T09:39:41.766Z,64.41
2023-05-19T09:40:42.770Z,63.10
2023-05-19T09:41:43.459Z,61.39
2023-05-19T09:42:41.774Z,64.32
2023-05-19T09:43:41.740Z,63.52
2023-05-19T09:44:41.740Z,63.51
2023-05-19T09:45:41.772Z,63.86
2023-05-19T09:46:41.864Z,62.90
2023-05-19T09:47:41.765Z,65.35
2023-05-19T09:48:42.389Z,64.99
2023-05-19T09:49:41.729Z,65.45
2023-05-19T09:50:41.683Z,65.55
2023-05-19T09:51:41.679Z,67.10
2023-05-19T09:52:41.667Z,64.85
2023-05-19T09:53:41.669Z,64.72
2023-05-19T09:54:41.664Z,65.10
2023-05-19T09:55:41.642Z,66.56
2023-05-19T09:56:41.655Z,65.38
2023-05-19T09:57:41.783Z,65.09
2023-05-19T09:58:41.672Z,64.27
2023-05-19T09:59:41.617Z,67.92
2023-05-19T10:00:41.610Z,66.52
2023-05-19T10:01:41.637Z,65.65
2023-05-19T10:02:41.675Z,65.16
2023-05-19T10:03:42.589Z,64.62
2023-05-19T21:21:53.839Z,55.91
2023-05-19T21:22:54.945Z,61.57
2023-05-19T21:23:54.973Z,58.00
2023-05-19T21:24:54.968Z,60.47
2023-05-19T21:25:54.931Z,56.04
2023-05-19T21:26:54.922Z,60.75
2023-05-19T21:27:54.936Z,59.16
2023-05-19T21:28:54.910Z,58.44
2023-05-19T21:29:54.891Z,59.86
2023-05-19T21:30:54.900Z,54.83
2023-05-19T21:31:54.887Z,59.56
2023-05-19T21:32:54.972Z,60.48
2023-05-19T21:33:54.870Z,58.95
2023-05-19T21:34:54.839Z,61.91
2023-05-19T21:35:54.830Z,58.40
2023-05-19T21:36:54.832Z,59.10
2023-05-19T21:37:54.824Z,60.50
2023-05-19T21:38:54.808Z,60.39
2023-05-19T21:39:54.801Z,59.94
2023-05-19T21:40:54.794Z,61.26
2023-05-19T21:41:54.784Z,57.61
2023-05-19T21:42:54.764Z,63.62
2023-05-19T21:43:54.780Z,58.58
2023-05-19T21:44:54.749Z,57.66
2023-05-19T21:45:54.742Z,57.47
2023-05-19T21:46:54.770Z,57.27
2023-05-19T21:47:54.764Z,56.62
2023-05-19T21:48:54.733Z,60.00
2023-05-19T21:49:54.725Z,63.28
2023-05-19T21:50:54.718Z,62.03
2023-05-19T21:51:54.738Z,60.13
2023-05-19T21:52:54.702Z,60.69
2023-05-19T21:53:54.789Z,59.05
2023-05-19T21:54:54.677Z,60.35
2023-05-19T21:55:54.663Z,56.92
2023-05-19T21:56:54.648Z,56.09
2023-05-19T21:57:55.718Z,57.19
2023-05-19T21:58:55.637Z,59.64
2023-05-19T21:59:54.637Z,59.95
2023-05-19T22:00:54.644Z,58.82
2023-05-19T22:01:55.700Z,60.70
2023-05-19T22:02:54.687Z,58.56
2023-05-19T22:03:54.669Z,59.54
2023-05-19T22:04:54.596Z,60.44
2023-05-19T22:05:54.613Z,63.11
2023-05-19T22:06:54.591Z,63.42
2023-05-19T22:07:54.579Z,61.87
2023-05-19T22:08:55.232Z,60.44
2023-05-19T22:09:54.591Z,57.83
2023-05-19T22:10:54.538Z,60.08
2023-05-19T22:11:54.565Z,61.70
2023-05-19T22:12:54.561Z,57.93
2023-05-19T22:13:54.522Z,60.69
2023-05-19T22:14:54.510Z,59.91
2023-05-19T22:15:54.535Z,61.37
2023-05-19T22:16:54.543Z,62.36
2023-05-19T22:17:54.497Z,59.32
2023-05-19T22:18:54.508Z,60.67
2023-05-19T22:19:54.473Z,59.12
2023-05-19T22:20:54.475Z,58.33
2023-05-19T22:22:02.007Z,62.09
2023-05-19T22:22:56.690Z,56.02
2023-05-19T22:23:54.457Z,59.28
2023-05-19T22:24:54.553Z,60.22
2023-05-19T22:25:55.369Z,59.73
2023-05-19T22:26:54.440Z,59.67
2023-05-19T22:27:54.435Z,59.47
2023-05-19T22:28:54.438Z,62.23
2023-05-19T22:29:54.419Z,60.87
2023-05-19T22:30:54.499Z,57.07
2023-05-19T22:31:54.389Z,60.60
2023-05-19T22:32:54.494Z,53.24
2023-05-19T22:33:54.419Z,53.52
2023-05-19T22:34:54.449Z,58.30
2023-05-19T22:35:55.284Z,62.65
2023-05-19T22:36:55.307Z,53.23
2023-05-19T22:37:54.337Z,51.00
2023-05-19T22:38:54.328Z,53.71
2023-05-19T22:39:54.330Z,58.81
2023-05-19T22:40:54.313Z,60.24
2023-05-19T22:41:55.282Z,59.97
2023-05-19T22:42:54.310Z,58.59
2023-05-19T22:43:54.299Z,60.67
2023-05-19T22:44:54.277Z,56.51
2023-05-19T22:45:54.282Z,57.01
2023-05-19T22:46:55.139Z,53.44
2023-05-19T22:47:54.320Z,59.62
2023-05-19T22:48:54.252Z,53.41
2023-05-19T22:49:57.121Z,58.26
2023-05-19T22:50:54.230Z,56.24
2023-05-19T22:51:54.247Z,54.20
2023-05-19T22:52:54.210Z,56.82
2023-05-19T22:53:54.213Z,58.87
2023-05-19T22:54:54.207Z,56.20
2023-05-19T22:55:54.204Z,58.14
2023-05-19T22:56:54.192Z,51.76
2023-05-19T22:57:54.169Z,55.01
2023-05-19T22:58:54.454Z,60.40
2023-05-19T22:59:54.258Z,58.64
2023-05-19T23:00:54.175Z,53.14
2023-05-19T23:01:54.150Z,61.54
2023-05-19T23:02:54.230Z,54.94
2023-05-19T23:03:54.149Z,52.35
2023-05-19T23:04:54.138Z,59.96
2023-05-19T23:05:54.101Z,54.67
2023-05-19T23:06:54.730Z,51.88
2023-05-19T23:07:54.086Z,58.49
2023-05-19T23:08:54.154Z,54.36
2023-05-19T23:09:54.088Z,57.85
2023-05-19T23:10:54.064Z,57.66
2023-05-19T23:11:54.658Z,58.29
2023-05-19T23:12:54.051Z,54.10
2023-05-19T23:13:54.036Z,54.02
2023-05-19T23:14:54.054Z,55.20
2023-05-19T23:15:54.031Z,65.17
2023-05-19T23:16:54.087Z,54.27
2023-05-19T23:17:54.039Z,52.39
2023-05-19T23:18:54.034Z,56.03
2023-05-19T23:19:53.997Z,52.50
2023-05-19T23:20:53.979Z,60.17
2023-05-19T23:21:54.763Z,53.65
2023-05-19T23:22:53.971Z,60.02
2023-05-19T23:23:53.974Z,62.69
2023-05-19T23:24:53.952Z,56.37
2023-05-19T23:25:53.962Z,63.63
2023-05-19T23:26:53.939Z,57.31
2023-05-19T23:27:53.928Z,61.21
2023-05-19T23:28:53.934Z,48.13
2023-05-19T23:29:53.923Z,54.78
2023-05-19T23:30:54.679Z,49.58
2023-05-19T23:31:53.914Z,59.56
2023-05-19T23:32:54.069Z,54.85
2023-05-19T23:33:53.914Z,54.56
2023-05-19T23:34:53.890Z,61.43
2023-05-19T23:35:53.879Z,52.90
2023-05-19T23:36:54.747Z,57.09
2023-05-19T23:37:53.868Z,52.03
2023-05-19T23:38:53.850Z,57.61
2023-05-19T23:39:53.891Z,60.89
2023-05-19T23:40:53.835Z,57.46
2023-05-19T23:41:53.808Z,58.19
2023-05-19T23:42:53.824Z,57.75
2023-05-19T23:43:53.805Z,61.44
2023-05-19T23:44:53.830Z,59.90
2023-05-19T23:45:53.786Z,55.86
2023-05-19T23:46:53.873Z,60.56
2023-05-19T23:47:53.843Z,53.56
2023-05-19T23:48:53.768Z,56.59
2023-05-19T23:49:53.763Z,50.85
2023-05-19T23:50:53.756Z,60.18
2023-05-19T23:51:53.742Z,62.72
2023-05-19T23:52:53.729Z,55.14
2023-05-19T23:53:53.764Z,57.44
2023-05-19T23:54:53.738Z,54.80
2023-05-19T23:55:53.719Z,56.46
2023-05-19T23:56:53.701Z,58.60
2023-05-19T23:57:53.745Z,51.60
2023-05-19T23:58:53.737Z,58.17
2023-05-19T23:59:53.677Z,51.67
